SHT15C EGJB-EGLL
Flight info
| Callsign | SHT15C |
|---|---|
| Flight time | 0h 34m |
| Altitude | 19000 |
| Route | ORIST1F ORIST L982 ROXOG ROXOG1H |
| Aircraft | A319/M-SDE3FGIJ1KRWXY/LB1 |
Departure
| Time | 2026-04-25 10:21 |
|---|---|
| Airport | Guernsey Airport (EGJB) |
Arrival
| Time | 2026-04-25 10:55 |
|---|---|
| Airport | London Heathrow Airport (EGLL) |
| Time | Latitude | Longitude | Altitude | Speed | Heading |
|---|---|---|---|---|---|
| 2026-04-25 09:56 | 49.43260 | -2.59688 | 351 ft | 0 kts | 178° |
| 2026-04-25 10:10 | 49.43261 | -2.59688 | 344 ft | 0 kts | 178° |
| 2026-04-25 10:10 | 49.43264 | -2.59688 | 344 ft | 3 kts | 178° |
| 2026-04-25 10:10 | 49.43291 | -2.59689 | 344 ft | 4 kts | 178° |
| 2026-04-25 10:11 | 49.43318 | -2.59690 | 344 ft | 4 kts | 182° |
| 2026-04-25 10:11 | 49.43344 | -2.59686 | 344 ft | 4 kts | 199° |
| 2026-04-25 10:11 | 49.43361 | -2.59669 | 355 ft | 3 kts | 263° |
| 2026-04-25 10:11 | 49.43362 | -2.59665 | 355 ft | 0 kts | 267° |
| 2026-04-25 10:14 | 49.43361 | -2.59676 | 344 ft | 2 kts | 267° |
| 2026-04-25 10:14 | 49.43359 | -2.59716 | 344 ft | 5 kts | 261° |
| 2026-04-25 10:14 | 49.43350 | -2.59776 | 350 ft | 7 kts | 256° |
| 2026-04-25 10:14 | 49.43345 | -2.59856 | 344 ft | 8 kts | 269° |
| 2026-04-25 10:15 | 49.43344 | -2.59955 | 344 ft | 10 kts | 269° |
| 2026-04-25 10:15 | 49.43339 | -2.60080 | 353 ft | 14 kts | 266° |
| 2026-04-25 10:15 | 49.43333 | -2.60255 | 338 ft | 19 kts | 268° |
| 2026-04-25 10:15 | 49.43328 | -2.60427 | 332 ft | 17 kts | 268° |
| 2026-04-25 10:16 | 49.43325 | -2.60571 | 329 ft | 15 kts | 271° |
| 2026-04-25 10:16 | 49.43343 | -2.60756 | 325 ft | 20 kts | 279° |
| 2026-04-25 10:16 | 49.43364 | -2.60950 | 322 ft | 17 kts | 272° |
| 2026-04-25 10:16 | 49.43360 | -2.61133 | 318 ft | 13 kts | 268° |
| 2026-04-25 10:17 | 49.43358 | -2.61217 | 316 ft | 0 kts | 268° |
| 2026-04-25 10:19 | 49.43358 | -2.61219 | 316 ft | 1 kts | 268° |
| 2026-04-25 10:19 | 49.43364 | -2.61260 | 315 ft | 6 kts | 294° |
| 2026-04-25 10:19 | 49.43402 | -2.61328 | 313 ft | 10 kts | 314° |
| 2026-04-25 10:19 | 49.43461 | -2.61345 | 313 ft | 5 kts | 43° |
| 2026-04-25 10:20 | 49.43468 | -2.61293 | 314 ft | 0 kts | 89° |
| 2026-04-25 10:20 | 49.43468 | -2.61291 | 314 ft | 3 kts | 89° |
| 2026-04-25 10:20 | 49.43477 | -2.60884 | 323 ft | 80 kts | 87° |
| 2026-04-25 10:20 | 49.43508 | -2.59632 | 360 ft | 150 kts | 90° |
| 2026-04-25 10:21 | 49.43553 | -2.57950 | 938 ft | 158 kts | 88° |
| 2026-04-25 10:21 | 49.43599 | -2.56264 | 1746 ft | 160 kts | 89° |
| 2026-04-25 10:21 | 49.43648 | -2.54444 | 2074 ft | 181 kts | 88° |
| 2026-04-25 10:21 | 49.43702 | -2.52423 | 2445 ft | 199 kts | 88° |
| 2026-04-25 10:22 | 49.43921 | -2.50203 | 2877 ft | 221 kts | 65° |
| 2026-04-25 10:22 | 49.44541 | -2.48948 | 3367 ft | 228 kts | 38° |
| 2026-04-25 10:22 | 49.46507 | -2.47731 | 3983 ft | 228 kts | 13° |
| 2026-04-25 10:22 | 49.48049 | -2.47189 | 4787 ft | 227 kts | 11° |
| 2026-04-25 10:23 | 49.49683 | -2.46654 | 5284 ft | 252 kts | 11° |
| 2026-04-25 10:23 | 49.51463 | -2.46058 | 5938 ft | 269 kts | 12° |
| 2026-04-25 10:23 | 49.53282 | -2.45416 | 6848 ft | 274 kts | 12° |
| 2026-04-25 10:23 | 49.55151 | -2.44732 | 7761 ft | 279 kts | 13° |
| 2026-04-25 10:24 | 49.57054 | -2.44019 | 8653 ft | 284 kts | 13° |
| 2026-04-25 10:24 | 49.58989 | -2.43284 | 9537 ft | 290 kts | 13° |
| 2026-04-25 10:24 | 49.60968 | -2.42531 | 10355 ft | 296 kts | 14° |
| 2026-04-25 10:24 | 49.62986 | -2.41761 | 11160 ft | 300 kts | 13° |
| 2026-04-25 10:25 | 49.65023 | -2.40982 | 11994 ft | 304 kts | 13° |
| 2026-04-25 10:25 | 49.67088 | -2.40193 | 12813 ft | 307 kts | 13° |
| 2026-04-25 10:25 | 49.69126 | -2.39131 | 13635 ft | 312 kts | 25° |
| 2026-04-25 10:25 | 49.70985 | -2.37334 | 14265 ft | 324 kts | 38° |
| 2026-04-25 10:26 | 49.72617 | -2.34769 | 14445 ft | 347 kts | 49° |
| 2026-04-25 10:26 | 49.74215 | -2.31840 | 14756 ft | 363 kts | 49° |
| 2026-04-25 10:26 | 49.75853 | -2.28824 | 15317 ft | 369 kts | 49° |
| 2026-04-25 10:26 | 49.77517 | -2.25765 | 15970 ft | 373 kts | 49° |
| 2026-04-25 10:27 | 49.79203 | -2.22683 | 16600 ft | 378 kts | 49° |
| 2026-04-25 10:27 | 49.80914 | -2.19569 | 17253 ft | 382 kts | 49° |
| 2026-04-25 10:27 | 49.82643 | -2.16427 | 17899 ft | 385 kts | 49° |
| 2026-04-25 10:27 | 49.84388 | -2.13250 | 18538 ft | 389 kts | 49° |
| 2026-04-25 10:28 | 49.86148 | -2.10033 | 19006 ft | 393 kts | 49° |
| 2026-04-25 10:28 | 49.87918 | -2.06792 | 19154 ft | 394 kts | 49° |
| 2026-04-25 10:28 | 49.89692 | -2.03532 | 19197 ft | 398 kts | 49° |
| 2026-04-25 10:28 | 49.91476 | -2.00246 | 19196 ft | 399 kts | 49° |
| 2026-04-25 10:29 | 49.93262 | -1.96956 | 19198 ft | 399 kts | 49° |
| 2026-04-25 10:29 | 49.95049 | -1.93659 | 19198 ft | 399 kts | 49° |
| 2026-04-25 10:29 | 49.96834 | -1.90361 | 19205 ft | 399 kts | 49° |
| 2026-04-25 10:29 | 49.98644 | -1.87094 | 19204 ft | 399 kts | 45° |
| 2026-04-25 10:30 | 50.00729 | -1.84269 | 19202 ft | 397 kts | 34° |
| 2026-04-25 10:30 | 50.02269 | -1.82737 | 19204 ft | 396 kts | 27° |
| 2026-04-25 10:30 | 50.05556 | -1.80142 | 19211 ft | 396 kts | 25° |
| 2026-04-25 10:30 | 50.08020 | -1.78199 | 19211 ft | 397 kts | 25° |
| 2026-04-25 10:31 | 50.09644 | -1.76908 | 19212 ft | 397 kts | 26° |
| 2026-04-25 10:31 | 50.12074 | -1.74856 | 19208 ft | 398 kts | 31° |
| 2026-04-25 10:31 | 50.14278 | -1.72254 | 19211 ft | 399 kts | 39° |
| 2026-04-25 10:31 | 50.16404 | -1.69475 | 19211 ft | 399 kts | 39° |
| 2026-04-25 10:32 | 50.18507 | -1.66745 | 19214 ft | 399 kts | 39° |
| 2026-04-25 10:32 | 50.20642 | -1.63979 | 19215 ft | 398 kts | 38° |
| 2026-04-25 10:32 | 50.22776 | -1.61215 | 19215 ft | 398 kts | 38° |
| 2026-04-25 10:32 | 50.24921 | -1.58486 | 19215 ft | 398 kts | 35° |
| 2026-04-25 10:33 | 50.27271 | -1.56230 | 19218 ft | 396 kts | 25° |
| 2026-04-25 10:33 | 50.29823 | -1.54670 | 19217 ft | 394 kts | 15° |
| 2026-04-25 10:33 | 50.32446 | -1.53413 | 19222 ft | 394 kts | 15° |
| 2026-04-25 10:33 | 50.35061 | -1.52140 | 19214 ft | 394 kts | 15° |
| 2026-04-25 10:34 | 50.37676 | -1.50853 | 19209 ft | 394 kts | 15° |
| 2026-04-25 10:34 | 50.40289 | -1.49561 | 19213 ft | 394 kts | 16° |
| 2026-04-25 10:34 | 50.42903 | -1.48267 | 19214 ft | 394 kts | 16° |
| 2026-04-25 10:34 | 50.45513 | -1.46981 | 19230 ft | 393 kts | 16° |
| 2026-04-25 10:35 | 50.48125 | -1.45694 | 19219 ft | 393 kts | 16° |
| 2026-04-25 10:35 | 50.50736 | -1.44405 | 19231 ft | 393 kts | 16° |
| 2026-04-25 10:35 | 50.53331 | -1.43060 | 19228 ft | 394 kts | 20° |
| 2026-04-25 10:35 | 50.55795 | -1.41171 | 19225 ft | 395 kts | 27° |
| 2026-04-25 10:36 | 50.58203 | -1.39099 | 19213 ft | 395 kts | 27° |
| 2026-04-25 10:36 | 50.60612 | -1.37027 | 19214 ft | 395 kts | 27° |
| 2026-04-25 10:36 | 50.63030 | -1.34948 | 19212 ft | 396 kts | 27° |
| 2026-04-25 10:36 | 50.65453 | -1.32870 | 19214 ft | 396 kts | 27° |
| 2026-04-25 10:37 | 50.67874 | -1.30790 | 19221 ft | 396 kts | 27° |
| 2026-04-25 10:37 | 50.70289 | -1.28714 | 19160 ft | 392 kts | 27° |
| 2026-04-25 10:37 | 50.72656 | -1.26675 | 18921 ft | 383 kts | 27° |
| 2026-04-25 10:37 | 50.74980 | -1.24664 | 18690 ft | 380 kts | 27° |
| 2026-04-25 10:38 | 50.77277 | -1.22621 | 18452 ft | 378 kts | 30° |
| 2026-04-25 10:38 | 50.79506 | -1.20446 | 18160 ft | 374 kts | 32° |
| 2026-04-25 10:38 | 50.81667 | -1.18208 | 17691 ft | 370 kts | 33° |
| 2026-04-25 10:38 | 50.83789 | -1.15948 | 17203 ft | 366 kts | 33° |
| 2026-04-25 10:39 | 50.85893 | -1.13699 | 16709 ft | 363 kts | 33° |
| 2026-04-25 10:39 | 50.87979 | -1.11488 | 16230 ft | 360 kts | 33° |
| 2026-04-25 10:39 | 50.90028 | -1.09339 | 15746 ft | 357 kts | 33° |
| 2026-04-25 10:39 | 50.92091 | -1.07189 | 15259 ft | 354 kts | 32° |
| 2026-04-25 10:40 | 50.94146 | -1.05063 | 14772 ft | 351 kts | 32° |
| 2026-04-25 10:40 | 50.96185 | -1.02956 | 14287 ft | 349 kts | 32° |
| 2026-04-25 10:40 | 50.98214 | -1.00858 | 13780 ft | 346 kts | 32° |
| 2026-04-25 10:40 | 51.00188 | -0.98707 | 13272 ft | 343 kts | 38° |
| 2026-04-25 10:41 | 51.01882 | -0.96064 | 12847 ft | 341 kts | 48° |
| 2026-04-25 10:41 | 51.03455 | -0.93255 | 12470 ft | 340 kts | 48° |
| 2026-04-25 10:41 | 51.05024 | -0.90462 | 12066 ft | 337 kts | 47° |
| 2026-04-25 10:41 | 51.06581 | -0.87689 | 11571 ft | 337 kts | 47° |
| 2026-04-25 10:42 | 51.08144 | -0.84899 | 11042 ft | 337 kts | 47° |
| 2026-04-25 10:42 | 51.09691 | -0.82140 | 10647 ft | 331 kts | 47° |
| 2026-04-25 10:42 | 51.11209 | -0.79432 | 10362 ft | 324 kts | 47° |
| 2026-04-25 10:42 | 51.12674 | -0.76813 | 10241 ft | 310 kts | 47° |
| 2026-04-25 10:43 | 51.14084 | -0.74290 | 10108 ft | 300 kts | 47° |
| 2026-04-25 10:43 | 51.15454 | -0.71837 | 9872 ft | 293 kts | 47° |
| 2026-04-25 10:43 | 51.16802 | -0.69420 | 9681 ft | 291 kts | 47° |
| 2026-04-25 10:43 | 51.18146 | -0.67010 | 9375 ft | 290 kts | 47° |
| 2026-04-25 10:44 | 51.19481 | -0.64614 | 9066 ft | 288 kts | 47° |
| 2026-04-25 10:44 | 51.20809 | -0.62229 | 8745 ft | 287 kts | 47° |
| 2026-04-25 10:44 | 51.22131 | -0.59849 | 8434 ft | 286 kts | 47° |
| 2026-04-25 10:44 | 51.23445 | -0.57483 | 8121 ft | 284 kts | 48° |
| 2026-04-25 10:45 | 51.24751 | -0.55129 | 7812 ft | 283 kts | 48° |
| 2026-04-25 10:45 | 51.26052 | -0.52778 | 7507 ft | 282 kts | 48° |
| 2026-04-25 10:45 | 51.27345 | -0.50441 | 7248 ft | 278 kts | 48° |
| 2026-04-25 10:45 | 51.28603 | -0.48162 | 7136 ft | 269 kts | 48° |
| 2026-04-25 10:46 | 51.29811 | -0.45943 | 7019 ft | 261 kts | 52° |
| 2026-04-25 10:46 | 51.30676 | -0.43476 | 6998 ft | 251 kts | 70° |
| 2026-04-25 10:46 | 51.31144 | -0.40817 | 7004 ft | 248 kts | 76° |
| 2026-04-25 10:46 | 51.31583 | -0.38154 | 7006 ft | 247 kts | 75° |
| 2026-04-25 10:47 | 51.32024 | -0.35501 | 7006 ft | 247 kts | 75° |
| 2026-04-25 10:47 | 51.32467 | -0.32846 | 7006 ft | 247 kts | 75° |
| 2026-04-25 10:47 | 51.32908 | -0.30187 | 7008 ft | 247 kts | 75° |
| 2026-04-25 10:47 | 51.33347 | -0.27528 | 7009 ft | 247 kts | 75° |
| 2026-04-25 10:48 | 51.33790 | -0.24867 | 6854 ft | 249 kts | 75° |
| 2026-04-25 10:48 | 51.34241 | -0.22191 | 6565 ft | 248 kts | 75° |
| 2026-04-25 10:48 | 51.34688 | -0.19542 | 6300 ft | 246 kts | 75° |
| 2026-04-25 10:48 | 51.35132 | -0.16915 | 6037 ft | 244 kts | 75° |
| 2026-04-25 10:49 | 51.35590 | -0.14297 | 5601 ft | 248 kts | 71° |
| 2026-04-25 10:49 | 51.36529 | -0.11964 | 4925 ft | 254 kts | 42° |
| 2026-04-25 10:49 | 51.38073 | -0.10589 | 4254 ft | 258 kts | 13° |
| 2026-04-25 10:49 | 51.39828 | -0.10582 | 3924 ft | 251 kts | 345° |
| 2026-04-25 10:50 | 51.41414 | -0.11651 | 3708 ft | 245 kts | 334° |
| 2026-04-25 10:50 | 51.42926 | -0.12834 | 3537 ft | 237 kts | 334° |
| 2026-04-25 10:50 | 51.44368 | -0.13966 | 3402 ft | 224 kts | 334° |
| 2026-04-25 10:50 | 51.45731 | -0.15038 | 3296 ft | 212 kts | 334° |
| 2026-04-25 10:51 | 51.46938 | -0.16257 | 3218 ft | 201 kts | 315° |
| 2026-04-25 10:51 | 51.47662 | -0.18119 | 3136 ft | 197 kts | 287° |
| 2026-04-25 10:51 | 51.47808 | -0.20270 | 2983 ft | 192 kts | 269° |
| 2026-04-25 10:51 | 51.47804 | -0.22419 | 2699 ft | 191 kts | 269° |
| 2026-04-25 10:52 | 51.47801 | -0.24485 | 2444 ft | 178 kts | 269° |
| 2026-04-25 10:52 | 51.47799 | -0.26434 | 2213 ft | 172 kts | 269° |
| 2026-04-25 10:52 | 51.47796 | -0.28333 | 1989 ft | 169 kts | 269° |
| 2026-04-25 10:52 | 51.47793 | -0.30206 | 1759 ft | 167 kts | 269° |
| 2026-04-25 10:53 | 51.47790 | -0.32038 | 1528 ft | 159 kts | 269° |
| 2026-04-25 10:53 | 51.47787 | -0.33750 | 1320 ft | 149 kts | 269° |
| 2026-04-25 10:53 | 51.47784 | -0.35356 | 1121 ft | 144 kts | 269° |
| 2026-04-25 10:53 | 51.47781 | -0.36970 | 921 ft | 142 kts | 269° |
| 2026-04-25 10:54 | 51.47775 | -0.38530 | 729 ft | 142 kts | 269° |
| 2026-04-25 10:54 | 51.47773 | -0.39596 | 590 ft | 142 kts | 268° |
| 2026-04-25 10:54 | 51.47767 | -0.41680 | 332 ft | 140 kts | 268° |
| 2026-04-25 10:54 | 51.47772 | -0.43248 | 147 ft | 140 kts | 268° |
| 2026-04-25 10:55 | 51.47764 | -0.44754 | 90 ft | 124 kts | 269° |
| 2026-04-25 10:55 | 51.47759 | -0.45933 | 85 ft | 82 kts | 270° |
| 2026-04-25 10:55 | 51.47751 | -0.46465 | 90 ft | 21 kts | 262° |
| 2026-04-25 10:55 | 51.47707 | -0.46703 | 91 ft | 24 kts | 246° |
| 2026-04-25 10:56 | 51.47643 | -0.46858 | 87 ft | 15 kts | 211° |
| 2026-04-25 10:56 | 51.47581 | -0.46972 | 90 ft | 9 kts | 266° |
| 2026-04-25 10:56 | 51.47582 | -0.47096 | 88 ft | 13 kts | 270° |
| 2026-04-25 10:56 | 51.47580 | -0.47253 | 87 ft | 16 kts | 269° |
| 2026-04-25 10:57 | 51.47580 | -0.47349 | 86 ft | 6 kts | 270° |
| 2026-04-25 10:57 | 51.47580 | -0.47436 | 89 ft | 9 kts | 269° |
| 2026-04-25 10:57 | 51.47579 | -0.47555 | 86 ft | 12 kts | 270° |
| 2026-04-25 10:57 | 51.47579 | -0.47705 | 86 ft | 15 kts | 269° |
| 2026-04-25 10:58 | 51.47579 | -0.47851 | 86 ft | 13 kts | 270° |
| 2026-04-25 10:58 | 51.47578 | -0.48009 | 87 ft | 16 kts | 269° |
| 2026-04-25 10:58 | 51.47578 | -0.48180 | 88 ft | 13 kts | 271° |
| 2026-04-25 10:58 | 51.47577 | -0.48337 | 86 ft | 16 kts | 269° |
| 2026-04-25 10:59 | 51.47570 | -0.48458 | 86 ft | 11 kts | 241° |
| 2026-04-25 10:59 | 51.47497 | -0.48487 | 86 ft | 12 kts | 213° |
| 2026-04-25 10:59 | 51.47486 | -0.48570 | 88 ft | 7 kts | 272° |
| 2026-04-25 10:59 | 51.47487 | -0.48668 | 86 ft | 10 kts | 270° |
| 2026-04-25 11:00 | 51.47479 | -0.48755 | 90 ft | 8 kts | 228° |
| 2026-04-25 11:00 | 51.47442 | -0.48758 | 86 ft | 4 kts | 177° |
| 2026-04-25 11:00 | 51.47409 | -0.48757 | 86 ft | 4 kts | 180° |
| 2026-04-25 11:00 | 51.47400 | -0.48757 | 86 ft | 0 kts | 180° |
| 2026-04-25 11:01 | 51.47398 | -0.48757 | 86 ft | 0 kts | 179° |